createdAt,value
2022-12-15T00:02:27.702Z,46.53
2022-12-15T00:05:13.817Z,43.20
2022-12-15T00:07:59.480Z,51.63
2022-12-15T00:10:45.540Z,48.50
2022-12-15T00:13:31.996Z,48.22
2022-12-15T00:16:18.346Z,45.47
2022-12-15T00:19:04.687Z,54.60
2022-12-15T00:21:50.762Z,49.70
2022-12-15T00:24:36.640Z,48.08
2022-12-15T00:27:22.534Z,52.08
2022-12-15T00:30:08.462Z,54.22
2022-12-15T00:32:54.643Z,57.15
2022-12-15T00:35:40.350Z,53.85
2022-12-15T00:38:30.982Z,53.05
2022-12-15T00:41:01.076Z,46.00
2022-12-15T00:43:29.839Z,48.45
2022-12-15T00:46:16.170Z,51.38
2022-12-15T00:48:43.430Z,47.58
2022-12-15T00:51:10.728Z,47.78
2022-12-15T00:53:57.096Z,46.88
2022-12-15T00:56:42.912Z,44.38
2022-12-15T00:59:28.687Z,49.83
2022-12-15T01:02:14.858Z,52.65
2022-12-15T01:05:00.919Z,52.90
2022-12-15T01:07:49.633Z,49.17
2022-12-15T01:10:36.049Z,45.03
2022-12-15T01:13:22.679Z,48.65
2022-12-15T01:16:08.701Z,45.53
2022-12-15T01:18:54.551Z,44.15
2022-12-15T01:21:24.619Z,42.92
2022-12-15T01:23:52.393Z,42.88
2022-12-15T01:26:19.560Z,49.70
2022-12-15T01:28:46.731Z,46.00
2022-12-15T01:31:14.327Z,49.20
2022-12-15T01:33:43.716Z,46.17
2022-12-15T01:36:11.456Z,53.28
2022-12-15T01:38:38.592Z,50.70
2022-12-15T01:41:06.958Z,48.45
2022-12-15T01:43:35.930Z,53.13
2022-12-15T01:46:05.510Z,50.03
2022-12-15T01:48:50.764Z,52.97
2022-12-15T01:51:34.683Z,53.28
2022-12-15T01:54:01.803Z,52.22
2022-12-15T01:56:35.344Z,55.65
2022-12-15T01:59:05.649Z,56.10
2022-12-15T02:01:33.175Z,54.08
2022-12-15T02:04:00.405Z,58.15
2022-12-15T02:06:28.936Z,53.80
2022-12-15T02:08:57.808Z,52.35
2022-12-15T02:11:28.001Z,56.70
2022-12-15T02:14:06.211Z,47.28
2022-12-15T02:16:52.244Z,52.00
2022-12-15T02:19:34.095Z,51.13
2022-12-15T02:22:19.851Z,54.15
2022-12-15T02:24:56.238Z,51.85
2022-12-15T02:27:30.920Z,52.78
2022-12-15T02:30:19.439Z,55.83
2022-12-15T02:33:04.975Z,56.28
2022-12-15T02:35:52.431Z,64.30
2022-12-15T02:38:28.787Z,61.60
2022-12-15T02:41:03.238Z,58.33
2022-12-15T02:43:31.321Z,54.95
2022-12-15T02:46:17.287Z,69.78
2022-12-15T02:49:00.245Z,63.20
2022-12-15T02:51:45.230Z,65.70
2022-12-15T02:54:24.414Z,64.38
2022-12-15T02:56:57.574Z,64.13
2022-12-15T02:59:33.236Z,63.03
2022-12-15T03:02:03.621Z,60.55
2022-12-15T03:04:33.813Z,66.00
2022-12-15T03:07:04.016Z,67.15
2022-12-15T03:09:31.837Z,67.10
2022-12-15T03:11:59.434Z,61.70
2022-12-15T03:14:27.017Z,67.57
2022-12-15T03:16:54.767Z,65.53
2022-12-15T03:19:22.325Z,68.05
2022-12-15T03:21:49.455Z,65.47
2022-12-15T03:24:16.575Z,72.28
2022-12-15T03:26:43.850Z,72.75
2022-12-15T03:29:11.077Z,70.93
2022-12-15T03:31:38.285Z,66.72
2022-12-15T03:34:05.460Z,64.40
2022-12-15T03:36:32.627Z,65.20
2022-12-15T03:38:59.818Z,65.95
2022-12-15T03:41:26.993Z,64.07
2022-12-15T03:43:54.152Z,68.25
2022-12-15T03:46:21.438Z,68.47
2022-12-15T03:48:48.574Z,67.22
2022-12-15T03:51:15.786Z,75.90
2022-12-15T03:53:42.995Z,71.15
2022-12-15T03:56:10.222Z,66.15
2022-12-15T03:58:37.356Z,62.28
2022-12-15T04:01:19.304Z,72.70
2022-12-15T04:03:46.592Z,68.05
2022-12-15T04:06:13.863Z,64.18
2022-12-15T04:08:41.009Z,59.10
2022-12-15T04:11:08.156Z,62.58
2022-12-15T04:13:35.292Z,68.30
2022-12-15T04:16:03.237Z,67.75
2022-12-15T04:18:30.574Z,61.65
2022-12-15T04:20:57.779Z,64.30
2022-12-15T04:23:25.183Z,63.67
2022-12-15T04:26:10.872Z,66.97
2022-12-15T04:28:56.788Z,59.33
2022-12-15T04:31:47.600Z,57.22
2022-12-15T04:34:41.343Z,61.45
2022-12-15T04:37:29.016Z,60.72
2022-12-15T04:40:15.513Z,58.05
2022-12-15T04:43:02.506Z,56.13
2022-12-15T04:45:48.446Z,56.90
2022-12-15T04:48:34.571Z,53.83
2022-12-15T04:51:22.731Z,54.10
2022-12-15T04:54:09.696Z,51.95
2022-12-15T04:56:55.592Z,49.95
2022-12-15T04:59:41.320Z,52.00
2022-12-15T05:02:27.389Z,46.05
2022-12-15T05:05:13.423Z,50.90
2022-12-15T05:07:59.225Z,46.50
2022-12-15T05:10:45.081Z,48.25
2022-12-15T05:13:31.209Z,50.70
2022-12-15T05:16:17.495Z,49.67
2022-12-15T05:19:03.316Z,54.88
2022-12-15T05:21:49.088Z,53.38
2022-12-15T05:24:34.856Z,51.80
2022-12-15T05:27:20.556Z,59.28
2022-12-15T05:30:06.379Z,64.15
2022-12-15T05:32:33.928Z,59.30
2022-12-15T05:35:01.567Z,54.70
2022-12-15T05:37:28.928Z,56.30
2022-12-15T05:39:56.137Z,62.30
2022-12-15T05:42:23.416Z,59.50
2022-12-15T05:44:50.594Z,54.00
2022-12-15T05:47:17.767Z,66.75
2022-12-15T05:49:44.943Z,65.45
2022-12-15T05:52:12.350Z,55.17
2022-12-15T05:54:39.528Z,60.97
2022-12-15T05:57:06.872Z,61.28
2022-12-15T05:59:34.035Z,47.80
2022-12-15T06:02:01.308Z,56.45
2022-12-15T06:04:28.620Z,61.80
2022-12-15T06:06:55.812Z,52.88
2022-12-15T06:09:22.920Z,57.80
2022-12-15T06:11:50.060Z,58.92
2022-12-15T06:14:17.199Z,50.70
2022-12-15T06:16:50.068Z,57.70
2022-12-15T06:19:18.450Z,60.83
2022-12-15T06:21:45.655Z,65.43
2022-12-15T06:24:12.882Z,62.42
2022-12-15T06:26:40.792Z,54.80
2022-12-15T06:29:08.827Z,61.72
2022-12-15T06:31:36.641Z,68.55
2022-12-15T06:34:06.164Z,54.88
2022-12-15T06:36:33.383Z,57.95
2022-12-15T06:39:01.141Z,58.17
2022-12-15T06:41:30.331Z,52.63
2022-12-15T06:43:57.926Z,55.28
2022-12-15T06:46:25.957Z,56.42
2022-12-15T06:48:53.194Z,55.08
2022-12-15T06:51:20.420Z,59.85
2022-12-15T06:53:54.106Z,58.50
2022-12-15T06:56:33.695Z,58.80
2022-12-15T06:59:02.139Z,54.90
2022-12-15T07:01:30.285Z,59.67
2022-12-15T07:04:00.106Z,55.78
2022-12-15T07:06:28.475Z,60.90
2022-12-15T07:08:56.729Z,57.80
2022-12-15T07:11:24.531Z,58.60
2022-12-15T07:13:52.439Z,55.42
2022-12-15T07:16:20.437Z,54.50
2022-12-15T07:18:47.737Z,55.42
2022-12-15T07:21:14.843Z,48.65
2022-12-15T07:23:58.223Z,52.22
2022-12-15T07:26:26.255Z,57.50
2022-12-15T07:28:54.114Z,54.00
2022-12-15T07:31:21.946Z,47.58
2022-12-15T07:33:49.362Z,56.50
2022-12-15T07:36:16.788Z,57.60
2022-12-15T07:38:50.037Z,54.55
2022-12-15T07:41:18.234Z,59.25
2022-12-15T07:43:46.619Z,62.58
2022-12-15T07:46:13.962Z,64.63
2022-12-15T07:48:41.236Z,50.67
2022-12-15T07:51:15.576Z,60.10
2022-12-15T07:53:46.590Z,56.45
2022-12-15T07:56:14.098Z,58.85
2022-12-15T07:58:41.920Z,56.38
2022-12-15T08:01:11.085Z,53.97
2022-12-15T08:03:39.584Z,59.05
2022-12-15T08:06:08.307Z,52.10
2022-12-15T08:08:35.987Z,59.67
2022-12-15T08:11:07.203Z,54.08
2022-12-15T08:16:22.352Z,50.28
2022-12-15T08:18:49.862Z,57.05
2022-12-15T08:21:17.104Z,51.30
2022-12-15T08:23:44.254Z,50.65
2022-12-15T08:26:13.048Z,55.60
2022-12-15T08:28:40.710Z,46.33
2022-12-15T08:31:09.886Z,45.95
2022-12-15T08:33:37.765Z,49.45
2022-12-15T08:36:06.778Z,46.05
2022-12-15T08:38:34.820Z,49.28
2022-12-15T08:41:12.044Z,48.17
2022-12-15T08:43:45.842Z,44.00
2022-12-15T08:46:15.901Z,48.67
2022-12-15T08:48:43.126Z,52.85
2022-12-15T08:51:10.663Z,52.72
2022-12-15T08:53:39.077Z,48.67
2022-12-15T08:56:10.429Z,47.95
2022-12-15T08:58:37.578Z,54.53
2022-12-15T09:01:06.421Z,50.03
2022-12-15T09:03:37.163Z,47.42
2022-12-15T09:06:05.510Z,44.00
2022-12-15T09:08:33.072Z,48.55
2022-12-15T09:11:00.839Z,49.42
2022-12-15T09:13:28.818Z,49.00
2022-12-15T09:16:09.397Z,43.33
2022-12-15T09:18:38.038Z,35.70
2022-12-15T09:21:07.178Z,43.95
2022-12-15T09:23:35.673Z,49.13
2022-12-15T09:26:04.151Z,48.65
2022-12-15T09:28:32.202Z,50.10
2022-12-15T09:31:05.151Z,47.42
2022-12-15T09:33:33.035Z,47.25
2022-12-15T09:36:00.649Z,41.85
2022-12-15T09:38:28.066Z,49.38
2022-12-15T09:40:55.229Z,45.63
2022-12-15T09:43:35.756Z,49.22
2022-12-15T09:46:18.610Z,46.38
2022-12-15T09:48:46.214Z,44.55
2022-12-15T09:51:15.389Z,44.78
2022-12-15T09:53:54.615Z,41.53
2022-12-15T09:56:27.740Z,45.67
2022-12-15T10:01:38.049Z,38.00
2022-12-15T10:04:13.013Z,43.38
2022-12-15T10:06:50.998Z,39.05
2022-12-15T10:09:22.729Z,47.75
2022-12-15T10:11:58.094Z,41.63
2022-12-15T10:14:33.636Z,48.60
2022-12-15T10:17:01.111Z,48.35
2022-12-15T10:19:50.156Z,48.08
2022-12-15T10:22:20.677Z,34.15
2022-12-15T10:27:59.621Z,44.67
2022-12-15T10:30:27.071Z,49.83
2022-12-15T10:33:08.830Z,47.33
2022-12-15T10:35:37.070Z,50.00
2022-12-15T10:38:05.563Z,50.35
2022-12-15T10:40:45.368Z,53.30
2022-12-15T10:43:28.820Z,41.05
2022-12-15T10:46:05.462Z,51.17
2022-12-15T10:48:32.829Z,48.33
2022-12-15T10:51:18.174Z,48.05
2022-12-15T10:53:45.541Z,51.38
2022-12-15T10:56:26.110Z,54.65
2022-12-15T10:58:59.916Z,48.47
2022-12-15T11:01:29.228Z,50.10
2022-12-15T11:03:57.279Z,49.08
2022-12-15T11:06:26.600Z,53.67
2022-12-15T11:08:55.217Z,53.88
2022-12-15T11:12:04.019Z,54.22
2022-12-15T11:14:43.766Z,56.35
2022-12-15T11:17:14.834Z,52.60
2022-12-15T11:19:55.214Z,55.05
2022-12-15T11:22:43.163Z,46.58
2022-12-15T11:25:23.349Z,54.80
2022-12-15T11:27:52.703Z,45.92
2022-12-15T11:30:22.812Z,44.60
2022-12-15T11:32:53.599Z,49.80
2022-12-15T11:35:33.008Z,55.05
2022-12-15T11:38:06.516Z,55.25
2022-12-15T11:40:40.830Z,55.78
2022-12-15T11:43:32.741Z,56.53
2022-12-15T11:46:09.487Z,52.90
2022-12-15T11:48:47.396Z,50.25
2022-12-15T11:51:20.349Z,48.50
2022-12-15T11:54:06.674Z,52.92
2022-12-15T11:56:33.779Z,53.30
2022-12-15T11:59:19.860Z,54.22
2022-12-15T12:02:03.354Z,53.60
2022-12-15T12:04:34.488Z,49.25
2022-12-15T12:07:07.661Z,51.30
2022-12-15T12:09:36.647Z,58.42
2022-12-15T12:12:08.617Z,57.70
2022-12-15T12:14:39.070Z,50.97
2022-12-15T12:17:14.567Z,54.22
2022-12-15T12:19:50.659Z,51.30
2022-12-15T12:22:37.869Z,43.00
2022-12-15T12:25:11.169Z,43.95
2022-12-15T12:27:53.036Z,49.35
2022-12-15T12:30:28.464Z,56.42
2022-12-15T12:33:10.241Z,44.28
2022-12-15T12:35:46.703Z,42.43
2022-12-15T12:38:20.236Z,41.38
2022-12-15T12:40:47.368Z,40.95
2022-12-15T12:43:34.355Z,44.40
2022-12-15T12:46:11.265Z,49.70
2022-12-15T12:48:48.519Z,44.70
2022-12-15T12:51:23.151Z,47.75
2022-12-15T12:53:50.775Z,49.83
2022-12-15T12:56:32.093Z,40.28
2022-12-15T12:58:59.280Z,44.25
2022-12-15T13:01:28.863Z,41.22
2022-12-15T13:04:06.736Z,36.42
2022-12-15T13:06:37.077Z,41.35
2022-12-15T13:09:19.345Z,42.70
2022-12-15T13:11:46.592Z,44.40
2022-12-15T13:14:24.160Z,38.58
2022-12-15T13:17:24.836Z,37.95
2022-12-15T13:19:59.307Z,37.65
2022-12-15T13:22:36.767Z,35.00
2022-12-15T13:25:23.869Z,37.35
2022-12-15T13:27:57.817Z,35.53
2022-12-15T13:30:25.029Z,36.67
2022-12-15T13:32:53.875Z,41.92
2022-12-15T13:35:31.654Z,35.10
2022-12-15T13:38:03.394Z,42.95
2022-12-15T13:40:33.973Z,39.67
2022-12-15T13:43:01.051Z,41.75
2022-12-15T13:45:48.924Z,45.97
2022-12-15T13:48:33.285Z,43.67
2022-12-15T13:51:18.810Z,41.17
2022-12-15T13:53:49.740Z,40.28
2022-12-15T13:56:37.582Z,43.47
2022-12-15T13:59:07.955Z,43.65
2022-12-15T14:01:35.162Z,42.53
2022-12-15T14:04:15.649Z,32.85
2022-12-15T14:06:55.024Z,43.17
2022-12-15T14:09:24.979Z,42.17
2022-12-15T14:11:54.106Z,46.08
2022-12-15T14:14:26.111Z,45.92
2022-12-15T14:16:55.682Z,47.13
2022-12-15T14:19:22.832Z,43.50
2022-12-15T14:21:56.991Z,45.38
2022-12-15T14:24:40.282Z,42.85
2022-12-15T14:27:08.182Z,43.03
2022-12-15T14:29:35.488Z,40.55
2022-12-15T14:32:03.017Z,38.17
2022-12-15T14:34:36.997Z,42.72
2022-12-15T14:37:07.650Z,39.65
2022-12-15T14:39:43.099Z,39.30
2022-12-15T14:42:23.349Z,40.83
2022-12-15T14:44:54.938Z,31.83
2022-12-15T14:47:30.017Z,35.20
2022-12-15T14:49:58.482Z,44.33
2022-12-15T14:52:36.465Z,32.47
2022-12-15T14:55:05.500Z,36.72
2022-12-15T14:57:41.292Z,37.70
2022-12-15T15:00:27.107Z,36.67
2022-12-15T15:03:18.483Z,34.33
2022-12-15T15:05:48.467Z,37.47
2022-12-15T15:08:16.606Z,34.35
2022-12-15T15:10:44.001Z,36.75
2022-12-15T15:13:21.640Z,41.28
2022-12-15T15:15:53.426Z,23.90
2022-12-15T15:18:23.720Z,38.15
2022-12-15T15:20:53.223Z,36.28
2022-12-15T15:23:20.440Z,39.80
2022-12-15T15:25:55.026Z,32.28
2022-12-15T15:28:27.430Z,39.72
2022-12-15T15:33:24.060Z,36.20
2022-12-15T15:35:56.326Z,28.00
2022-12-15T15:38:29.644Z,36.55
2022-12-15T15:41:00.864Z,32.08
2022-12-15T15:43:29.031Z,38.58
2022-12-15T15:46:06.440Z,39.85
2022-12-15T15:48:35.553Z,41.15
2022-12-15T15:51:03.294Z,42.08
2022-12-15T15:53:32.478Z,45.00
2022-12-15T15:56:00.021Z,41.45
2022-12-15T15:58:27.251Z,39.70
2022-12-15T16:00:54.411Z,44.78
2022-12-15T16:03:21.706Z,44.92
2022-12-15T16:05:49.029Z,35.90
2022-12-15T16:08:17.980Z,33.22
2022-12-15T16:10:46.119Z,38.15
2022-12-15T16:13:13.663Z,41.88
2022-12-15T16:15:40.963Z,42.67
2022-12-15T16:18:08.204Z,44.22
2022-12-15T16:20:36.830Z,38.78
2022-12-15T16:23:17.519Z,47.33
2022-12-15T16:25:51.054Z,46.15
2022-12-15T16:28:20.451Z,42.70
2022-12-15T16:30:48.116Z,36.45
2022-12-15T16:33:15.669Z,42.75
2022-12-15T16:35:43.507Z,35.20
2022-12-15T16:38:23.789Z,45.50
2022-12-15T16:40:51.233Z,45.92
2022-12-15T16:43:21.857Z,42.88
2022-12-15T16:45:49.912Z,42.28
2022-12-15T16:48:17.794Z,41.60
2022-12-15T16:50:46.524Z,46.83
2022-12-15T16:53:16.426Z,36.30
2022-12-15T16:55:44.468Z,46.53
2022-12-15T16:58:15.989Z,39.05
2022-12-15T17:00:43.639Z,45.13
2022-12-15T17:03:18.852Z,44.20
2022-12-15T17:05:49.320Z,40.13
2022-12-15T17:08:21.885Z,41.50
2022-12-15T17:10:50.875Z,35.72
2022-12-15T17:13:36.528Z,41.92
2022-12-15T17:16:05.946Z,43.55
2022-12-15T17:18:33.971Z,42.95
2022-12-15T17:21:03.387Z,35.55
2022-12-15T17:23:31.135Z,41.60
2022-12-15T17:26:22.786Z,43.47
2022-12-15T17:28:45.894Z,35.65
2022-12-15T17:31:27.677Z,43.15
2022-12-15T17:33:57.286Z,41.97
2022-12-15T17:36:26.979Z,43.70
2022-12-15T17:39:02.976Z,39.90
2022-12-15T17:41:58.684Z,40.42
2022-12-15T17:44:33.507Z,39.90
2022-12-15T17:47:02.109Z,41.72
2022-12-15T17:49:35.166Z,46.10
2022-12-15T17:52:03.824Z,33.22
2022-12-15T17:54:31.047Z,38.75
2022-12-15T17:56:58.630Z,40.17
2022-12-15T17:59:25.904Z,38.65
2022-12-15T18:01:57.045Z,39.85
2022-12-15T18:04:24.593Z,41.35
2022-12-15T18:06:55.364Z,39.55
2022-12-15T18:09:26.920Z,40.58
2022-12-15T18:11:54.133Z,36.83
2022-12-15T18:14:23.013Z,39.13
2022-12-15T18:16:50.703Z,44.08
2022-12-15T18:19:17.990Z,37.75
2022-12-15T18:21:45.265Z,41.67
2022-12-15T18:24:17.185Z,44.67
2022-12-15T18:26:44.875Z,49.67
2022-12-15T18:29:18.130Z,40.03
2022-12-15T18:31:47.125Z,33.97
2022-12-15T18:34:16.311Z,41.20
2022-12-15T18:36:43.720Z,56.78
2022-12-15T18:39:17.126Z,46.65
2022-12-15T18:41:44.469Z,37.00
2022-12-15T18:44:25.822Z,41.90
2022-12-15T18:46:55.013Z,45.50
2022-12-15T18:49:22.845Z,46.28
2022-12-15T18:51:50.289Z,44.67
2022-12-15T18:54:18.773Z,38.30
2022-12-15T18:56:45.969Z,43.50
2022-12-15T18:59:17.673Z,34.25
2022-12-15T19:01:46.102Z,42.17
2022-12-15T19:04:13.856Z,45.88
2022-12-15T19:06:41.223Z,38.40
2022-12-15T19:09:16.445Z,42.05
2022-12-15T19:12:05.519Z,36.45
2022-12-15T19:14:42.780Z,35.75
2022-12-15T19:17:33.814Z,39.50
2022-12-15T19:20:20.117Z,37.38
2022-12-15T19:22:48.317Z,37.25
2022-12-15T19:25:25.124Z,29.90
2022-12-15T19:27:58.549Z,32.20
2022-12-15T19:30:27.214Z,38.25
2022-12-15T19:32:54.606Z,45.15
2022-12-15T19:35:22.075Z,35.85
2022-12-15T19:37:50.060Z,38.42
2022-12-15T19:40:22.268Z,31.98
2022-12-15T19:42:49.694Z,28.98
2022-12-15T19:45:18.295Z,36.47
2022-12-15T19:47:45.493Z,33.15
2022-12-15T19:50:20.176Z,37.47
2022-12-15T19:52:49.486Z,33.78
2022-12-15T19:55:17.702Z,36.25
2022-12-15T19:57:44.953Z,45.35
2022-12-15T20:00:21.862Z,36.63
2022-12-15T20:02:51.319Z,31.23
2022-12-15T20:05:20.058Z,40.70
2022-12-15T20:07:47.948Z,38.42
2022-12-15T20:10:24.626Z,41.47
2022-12-15T20:12:53.866Z,44.38
2022-12-15T20:15:22.540Z,38.72
2022-12-15T20:17:56.735Z,37.60
2022-12-15T20:20:25.298Z,44.58
2022-12-15T20:22:54.605Z,35.20
2022-12-15T20:25:24.691Z,37.38
2022-12-15T20:27:51.973Z,35.15
2022-12-15T20:30:20.609Z,31.80
2022-12-15T20:32:48.309Z,35.53
2022-12-15T20:35:19.868Z,30.15
2022-12-15T20:37:47.337Z,44.93
2022-12-15T20:40:17.518Z,41.35
2022-12-15T20:42:44.887Z,31.48
2022-12-15T20:45:16.267Z,41.78
2022-12-15T20:47:44.514Z,36.75
2022-12-15T20:50:26.819Z,39.90
2022-12-15T20:52:55.065Z,39.95
2022-12-15T20:55:22.720Z,30.05
2022-12-15T20:57:49.969Z,45.15
2022-12-15T21:00:20.854Z,39.28
2022-12-15T21:02:48.617Z,39.60
2022-12-15T21:05:17.798Z,29.85
2022-12-15T21:07:45.529Z,39.60
2022-12-15T21:10:13.909Z,37.58
2022-12-15T21:12:41.842Z,37.05
2022-12-15T21:15:15.997Z,37.22
2022-12-15T21:17:43.229Z,42.97
2022-12-15T21:20:11.113Z,36.85
2022-12-15T21:22:38.420Z,35.17
2022-12-15T21:25:15.518Z,40.58
2022-12-15T21:27:42.755Z,37.38
2022-12-15T21:30:17.284Z,43.25
2022-12-15T21:32:44.499Z,36.25
2022-12-15T21:35:14.818Z,38.70
2022-12-15T21:37:42.694Z,32.75
2022-12-15T21:40:16.727Z,40.00
2022-12-15T21:42:43.993Z,40.10
2022-12-15T21:45:29.432Z,40.92
2022-12-15T21:48:15.326Z,41.25
2022-12-15T21:50:44.587Z,44.42
2022-12-15T21:53:16.799Z,39.97
2022-12-15T21:55:45.801Z,37.38
2022-12-15T21:58:20.776Z,40.67
2022-12-15T22:00:47.988Z,41.50
2022-12-15T22:03:15.781Z,41.13
2022-12-15T22:05:43.372Z,40.05
2022-12-15T22:08:15.474Z,39.13
2022-12-15T22:10:43.055Z,45.97
2022-12-15T22:13:13.335Z,33.80
2022-12-15T22:15:40.606Z,45.50
2022-12-15T22:18:11.962Z,41.20
2022-12-15T22:20:39.166Z,40.13
2022-12-15T22:23:06.298Z,40.63
2022-12-15T22:25:33.514Z,44.05
2022-12-15T22:28:00.868Z,46.65
2022-12-15T22:30:28.384Z,41.58
2022-12-15T22:32:55.539Z,47.45
2022-12-15T22:35:25.021Z,49.42
2022-12-15T22:37:56.489Z,50.97
2022-12-15T22:40:24.390Z,54.20
2022-12-15T22:42:55.996Z,47.60
2022-12-15T22:45:26.659Z,40.60
2022-12-15T22:47:55.144Z,48.28
2022-12-15T22:50:24.190Z,47.53
2022-12-15T22:52:51.954Z,46.60
2022-12-15T22:55:20.155Z,49.80
2022-12-15T22:58:08.134Z,47.53
2022-12-15T23:00:35.308Z,48.35
2022-12-15T23:03:03.214Z,49.03
2022-12-15T23:05:30.847Z,50.35
2022-12-15T23:07:59.283Z,50.42
2022-12-15T23:10:45.327Z,48.55
2022-12-15T23:13:15.109Z,48.58
2022-12-15T23:16:01.824Z,50.42
2022-12-15T23:18:29.454Z,47.60
2022-12-15T23:20:57.248Z,51.00
2022-12-15T23:23:25.981Z,47.50
2022-12-15T23:25:54.842Z,36.10
2022-12-15T23:28:22.550Z,40.60
2022-12-15T23:30:52.978Z,42.17
2022-12-15T23:33:20.477Z,44.38
2022-12-15T23:35:48.253Z,52.92
2022-12-15T23:38:15.908Z,46.15
2022-12-15T23:40:51.045Z,33.47
2022-12-15T23:43:20.615Z,42.17
2022-12-15T23:45:55.990Z,45.95
2022-12-15T23:48:23.939Z,41.08
2022-12-15T23:50:51.742Z,40.08
2022-12-15T23:53:20.952Z,44.97
2022-12-15T23:55:48.143Z,53.85
2022-12-15T23:58:15.283Z,46.90
